createdAt,value
2018-06-20T00:00:40.145Z,100.00
2018-06-20T00:03:08.767Z,100.00
2018-06-20T00:05:37.656Z,100.00
2018-06-20T00:08:06.356Z,100.00
2018-06-20T00:10:35.074Z,100.00
2018-06-20T00:13:03.965Z,100.00
2018-06-20T00:15:39.315Z,100.00
2018-06-20T00:18:08.022Z,100.00
2018-06-20T00:20:36.904Z,100.00
2018-06-20T00:23:05.720Z,100.00
2018-06-20T00:25:34.512Z,100.00
2018-06-20T00:28:03.318Z,100.00
2018-06-20T00:30:32.023Z,100.00
2018-06-20T00:33:00.814Z,100.00
2018-06-20T00:35:29.630Z,100.00
2018-06-20T00:37:58.533Z,100.00
2018-06-20T00:40:27.262Z,100.00
2018-06-20T00:42:56.199Z,100.00
2018-06-20T00:45:24.870Z,100.00
2018-06-20T00:47:53.581Z,100.00
2018-06-20T00:50:22.300Z,100.00
2018-06-20T00:52:51.087Z,100.00
2018-06-20T00:56:28.426Z,100.00
2018-06-20T00:58:57.185Z,100.00
2018-06-20T01:01:26.280Z,100.00
2018-06-20T01:03:55.386Z,100.00
2018-06-20T01:12:14.574Z,100.00
2018-06-20T01:14:43.008Z,100.00
2018-06-20T01:17:11.466Z,100.00
2018-06-20T01:19:39.870Z,100.00
2018-06-20T01:22:08.213Z,100.00
2018-06-20T01:24:36.574Z,100.00
2018-06-20T01:27:04.970Z,100.00
2018-06-20T01:29:33.355Z,100.00
2018-06-20T01:32:01.665Z,100.00
2018-06-20T01:34:30.089Z,100.00
2018-06-20T01:36:58.428Z,100.00
2018-06-20T01:39:26.778Z,100.00
2018-06-20T01:41:55.229Z,100.00
2018-06-20T01:44:23.679Z,100.00
2018-06-20T01:46:52.101Z,100.00
2018-06-20T01:49:20.488Z,100.00
2018-06-20T01:51:48.966Z,100.00
2018-06-20T01:54:17.514Z,100.00
2018-06-20T01:56:45.831Z,100.00
2018-06-20T01:59:14.210Z,100.00
2018-06-20T02:01:42.693Z,100.00
2018-06-20T02:04:11.060Z,100.00
2018-06-20T02:06:39.390Z,100.00
2018-06-20T02:09:08.401Z,100.00
2018-06-20T02:11:36.827Z,100.00
2018-06-20T02:14:05.225Z,100.00
2018-06-20T02:16:33.605Z,100.00
2018-06-20T02:19:02.034Z,100.00
2018-06-20T02:21:30.605Z,100.00
2018-06-20T02:23:59.000Z,100.00
2018-06-20T02:26:27.377Z,100.00
2018-06-20T02:28:55.737Z,100.00
2018-06-20T02:31:24.084Z,100.00
2018-06-20T02:33:52.537Z,100.00
2018-06-20T02:36:26.011Z,100.00
2018-06-20T02:38:54.365Z,100.00
2018-06-20T02:41:22.754Z,100.00
2018-06-20T02:43:51.163Z,100.00
2018-06-20T02:46:19.457Z,100.00
2018-06-20T02:48:47.912Z,100.00
2018-06-20T02:51:16.262Z,100.00
2018-06-20T02:53:44.562Z,100.00
2018-06-20T02:56:12.987Z,100.00
2018-06-20T02:58:41.347Z,100.00
2018-06-20T03:01:09.732Z,100.00
2018-06-20T03:03:38.480Z,100.00
2018-06-20T03:06:07.355Z,100.00
2018-06-20T03:08:35.884Z,100.00
2018-06-20T03:11:04.372Z,100.00
2018-06-20T03:13:32.847Z,100.00
2018-06-20T03:16:01.199Z,100.00
2018-06-20T03:18:29.629Z,100.00
2018-06-20T03:20:58.036Z,100.00
2018-06-20T03:23:26.478Z,100.00
2018-06-20T03:25:54.907Z,100.00
2018-06-20T03:28:23.308Z,100.00
2018-06-20T03:30:51.678Z,100.00
2018-06-20T03:33:20.074Z,100.00
2018-06-20T03:35:48.409Z,100.00
2018-06-20T03:38:16.750Z,100.00
2018-06-20T03:40:45.150Z,100.00
2018-06-20T03:43:13.456Z,100.00
2018-06-20T03:45:41.783Z,100.00
2018-06-20T03:48:10.259Z,100.00
2018-06-20T03:50:38.671Z,100.00
2018-06-20T03:53:07.109Z,100.00
2018-06-20T03:55:35.502Z,100.00
2018-06-20T03:58:03.975Z,100.00
2018-06-20T04:00:32.495Z,100.00
2018-06-20T04:03:00.863Z,100.00
2018-06-20T04:05:30.672Z,100.00
2018-06-20T04:07:59.612Z,100.00
2018-06-20T04:10:28.063Z,100.00
2018-06-20T04:12:56.402Z,100.00
2018-06-20T04:15:24.929Z,100.00
2018-06-20T04:17:53.326Z,100.00
2018-06-20T04:20:21.634Z,100.00
2018-06-20T04:22:49.977Z,100.00
2018-06-20T04:25:18.381Z,100.00
2018-06-20T04:27:46.782Z,100.00
2018-06-20T04:30:15.097Z,100.00
2018-06-20T04:32:43.464Z,100.00
2018-06-20T04:35:11.844Z,100.00
2018-06-20T04:37:40.196Z,100.00
2018-06-20T04:40:08.773Z,100.00
2018-06-20T04:42:37.397Z,100.00
2018-06-20T04:45:06.160Z,100.00
2018-06-20T04:47:34.513Z,100.00
2018-06-20T04:50:03.069Z,100.00
2018-06-20T04:52:31.447Z,100.00
2018-06-20T04:54:59.834Z,100.00
2018-06-20T04:57:28.214Z,100.00
2018-06-20T04:59:56.635Z,100.00
2018-06-20T05:02:24.986Z,100.00
2018-06-20T05:04:53.356Z,100.00
2018-06-20T05:07:21.657Z,100.00
2018-06-20T05:09:50.008Z,100.00
2018-06-20T05:12:18.384Z,100.00
2018-06-20T05:14:46.699Z,100.00
2018-06-20T05:17:15.009Z,100.00
2018-06-20T05:19:43.348Z,99.84
2018-06-20T05:22:11.883Z,97.97
2018-06-20T05:24:40.218Z,97.48
2018-06-20T05:27:08.621Z,99.11
2018-06-20T05:29:36.950Z,99.64
2018-06-20T05:32:05.261Z,98.42
2018-06-20T05:34:33.642Z,98.95
2018-06-20T05:37:02.082Z,99.00
2018-06-20T05:39:30.417Z,96.95
2018-06-20T05:41:58.765Z,96.73
2018-06-20T05:44:27.158Z,97.49
2018-06-20T05:46:55.523Z,96.32
2018-06-20T05:49:23.822Z,95.22
2018-06-20T05:51:52.146Z,94.10
2018-06-20T05:54:20.535Z,94.18
2018-06-20T05:56:48.902Z,92.82
2018-06-20T05:59:17.218Z,92.54
2018-06-20T06:01:45.493Z,91.31
2018-06-20T06:04:13.841Z,90.51
2018-06-20T06:06:42.133Z,89.40
2018-06-20T06:09:10.401Z,88.57
2018-06-20T06:11:38.777Z,87.81
2018-06-20T06:14:07.104Z,87.86
2018-06-20T06:16:35.438Z,87.78
2018-06-20T06:19:03.811Z,86.08
2018-06-20T06:21:32.135Z,86.03
2018-06-20T06:24:00.509Z,84.67
2018-06-20T06:26:28.867Z,85.11
2018-06-20T06:28:57.210Z,84.45
2018-06-20T06:31:25.600Z,84.99
2018-06-20T06:33:53.992Z,82.84
2018-06-20T06:36:22.406Z,82.89
2018-06-20T06:38:50.713Z,80.47
2018-06-20T06:41:19.054Z,79.38
2018-06-20T06:43:47.425Z,79.10
2018-06-20T06:46:15.746Z,79.12
2018-06-20T06:48:44.117Z,78.38
2018-06-20T06:51:12.417Z,75.10
2018-06-20T06:53:40.736Z,75.52
2018-06-20T06:56:09.070Z,73.86
2018-06-20T06:58:37.450Z,73.54
2018-06-20T07:01:05.874Z,73.07
2018-06-20T07:03:34.194Z,71.99
2018-06-20T07:06:02.567Z,71.28
2018-06-20T07:08:30.927Z,73.45
2018-06-20T07:10:59.274Z,72.19
2018-06-20T07:13:27.778Z,71.00
2018-06-20T07:15:56.106Z,69.94
2018-06-20T07:18:24.462Z,70.91
2018-06-20T07:20:52.886Z,71.42
2018-06-20T07:23:21.180Z,70.01
2018-06-20T07:25:49.621Z,70.22
2018-06-20T07:28:17.946Z,69.82
2018-06-20T07:30:46.242Z,69.34
2018-06-20T07:33:14.612Z,67.16
2018-06-20T07:35:43.024Z,67.71
2018-06-20T07:38:11.182Z,66.60
2018-06-20T07:40:39.602Z,63.90
2018-06-20T07:43:07.881Z,66.34
2018-06-20T07:45:36.321Z,66.41
2018-06-20T07:48:04.666Z,65.72
2018-06-20T07:50:33.052Z,65.47
2018-06-20T07:53:01.374Z,65.31
2018-06-20T07:55:36.115Z,63.46
2018-06-20T07:58:04.462Z,64.45
2018-06-20T08:00:38.250Z,63.71
2018-06-20T08:03:19.246Z,62.36
2018-06-20T08:05:52.936Z,61.42
2018-06-20T08:08:26.517Z,61.17
2018-06-20T08:11:00.107Z,60.51
2018-06-20T08:13:33.762Z,60.47
2018-06-20T08:16:07.524Z,59.38
2018-06-20T08:18:41.169Z,59.28
2018-06-20T08:21:09.540Z,58.56
2018-06-20T08:23:37.902Z,57.25
2018-06-20T08:26:06.252Z,56.80
2018-06-20T08:28:34.614Z,56.92
2018-06-20T08:31:02.978Z,57.22
2018-06-20T08:33:31.268Z,56.29
2018-06-20T08:35:59.580Z,57.55
2018-06-20T08:38:27.897Z,56.29
2018-06-20T08:40:56.225Z,54.37
2018-06-20T08:43:24.553Z,54.32
2018-06-20T08:45:55.812Z,55.94
2018-06-20T08:48:24.162Z,53.81
2018-06-20T08:50:52.468Z,54.93
2018-06-20T08:53:20.857Z,53.93
2018-06-20T08:55:49.329Z,53.67
2018-06-20T08:58:17.761Z,53.32
2018-06-20T09:00:51.423Z,53.49
2018-06-20T09:03:19.772Z,51.13
2018-06-20T09:05:53.451Z,49.58
2018-06-20T09:08:26.964Z,51.18
2018-06-20T09:11:00.672Z,50.22
2018-06-20T09:13:34.277Z,50.41
2018-06-20T09:16:07.819Z,50.01
2018-06-20T09:18:41.544Z,51.06
2018-06-20T09:21:09.929Z,49.34
2018-06-20T09:23:38.354Z,47.75
2018-06-20T09:26:06.688Z,47.05
2018-06-20T09:28:34.956Z,47.35
2018-06-20T09:31:03.357Z,46.08
2018-06-20T09:33:31.732Z,47.25
2018-06-20T09:36:00.081Z,47.74
2018-06-20T09:38:28.399Z,47.24
2018-06-20T09:40:56.710Z,46.72
2018-06-20T09:43:25.058Z,46.98
2018-06-20T09:45:53.412Z,45.28
2018-06-20T09:48:21.844Z,46.74
2018-06-20T09:50:57.466Z,46.92
2018-06-20T09:53:25.840Z,46.67
2018-06-20T09:55:54.341Z,45.48
2018-06-20T09:58:22.753Z,44.54
2018-06-20T10:00:56.549Z,44.90
2018-06-20T10:03:30.098Z,46.09
2018-06-20T10:06:03.597Z,46.60
2018-06-20T10:08:37.354Z,45.65
2018-06-20T10:11:11.162Z,45.34
2018-06-20T10:13:46.485Z,45.10
2018-06-20T10:16:16.742Z,43.76
2018-06-20T10:18:45.196Z,44.10
2018-06-20T10:21:13.576Z,41.67
2018-06-20T10:23:42.022Z,45.34
2018-06-20T10:26:10.423Z,42.60
2018-06-20T10:28:38.819Z,42.53
2018-06-20T10:31:07.101Z,42.99
2018-06-20T10:33:35.520Z,40.84
2018-06-20T10:36:03.912Z,41.51
2018-06-20T10:38:32.307Z,41.19
2018-06-20T10:41:00.659Z,41.39
2018-06-20T10:43:28.979Z,40.38
2018-06-20T10:46:02.650Z,40.90
2018-06-20T10:48:30.909Z,40.34
2018-06-20T10:50:59.252Z,43.00
2018-06-20T10:53:27.659Z,39.06
2018-06-20T10:55:56.038Z,40.99
2018-06-20T10:58:29.705Z,40.56
2018-06-20T11:01:03.372Z,42.49
2018-06-20T11:03:37.099Z,40.14
2018-06-20T11:06:30.938Z,41.18
2018-06-20T11:09:06.117Z,41.25
2018-06-20T11:11:39.782Z,42.79
2018-06-20T11:14:08.550Z,40.30
2018-06-20T11:16:36.953Z,38.88
2018-06-20T11:19:05.305Z,39.12
2018-06-20T11:21:33.716Z,40.55
2018-06-20T11:24:02.094Z,41.01
2018-06-20T11:26:30.429Z,39.95
2018-06-20T11:28:58.917Z,38.62
2018-06-20T11:31:27.284Z,39.06
2018-06-20T11:33:55.697Z,39.86
2018-06-20T11:36:24.045Z,39.12
2018-06-20T11:38:52.349Z,39.25
2018-06-20T11:41:20.692Z,40.50
2018-06-20T11:43:49.111Z,38.63
2018-06-20T11:46:22.707Z,38.83
2018-06-20T11:48:51.043Z,36.83
2018-06-20T11:51:19.364Z,37.03
2018-06-20T11:53:47.751Z,36.33
2018-06-20T11:56:16.048Z,36.77
2018-06-20T11:58:49.737Z,36.80
2018-06-20T12:01:23.396Z,34.88
2018-06-20T12:03:57.160Z,34.57
2018-06-20T12:06:30.829Z,31.92
2018-06-20T12:09:04.568Z,32.74
2018-06-20T12:11:37.997Z,30.26
2018-06-20T12:14:11.737Z,29.39
2018-06-20T12:16:40.076Z,25.72
2018-06-20T12:19:13.677Z,25.00
2018-06-20T12:21:47.478Z,25.02
2018-06-20T12:24:21.212Z,25.25
2018-06-20T12:26:54.933Z,23.50
2018-06-20T12:29:28.573Z,23.44
2018-06-20T12:32:02.188Z,22.44
2018-06-20T12:34:35.851Z,22.21
2018-06-20T12:37:09.618Z,22.96
2018-06-20T12:39:37.133Z,22.33
2018-06-20T12:42:11.026Z,21.98
2018-06-20T12:44:44.696Z,20.90
2018-06-20T12:47:17.800Z,20.32
2018-06-20T12:49:56.621Z,18.66
2018-06-20T12:52:25.011Z,18.73
2018-06-20T12:54:53.387Z,19.99
2018-06-20T12:57:21.721Z,20.90
2018-06-20T12:59:50.072Z,19.20
2018-06-20T13:02:18.435Z,19.79
2018-06-20T13:04:46.755Z,18.78
2018-06-20T13:07:15.034Z,19.71
2018-06-20T13:09:43.380Z,18.77
2018-06-20T13:12:11.847Z,17.69
2018-06-20T13:14:40.268Z,18.57
2018-06-20T13:17:08.749Z,19.12
2018-06-20T13:19:37.189Z,16.94
2018-06-20T13:22:05.520Z,18.01
2018-06-20T13:24:33.951Z,19.60
2018-06-20T13:27:02.296Z,20.99
2018-06-20T13:29:30.628Z,19.83
2018-06-20T13:34:12.710Z,18.91
2018-06-20T13:36:46.524Z,17.75
2018-06-20T13:40:21.887Z,17.32
2018-06-20T13:42:55.596Z,14.91
2018-06-20T13:45:29.329Z,17.30
2018-06-20T13:48:03.066Z,15.52
2018-06-20T13:50:31.525Z,15.15
2018-06-20T13:52:59.886Z,14.65
2018-06-20T13:55:28.280Z,12.65
2018-06-20T13:57:56.708Z,14.32
2018-06-20T14:00:25.157Z,15.96
2018-06-20T14:02:53.505Z,15.73
2018-06-20T14:05:21.882Z,16.22
2018-06-20T14:07:50.407Z,13.55
2018-06-20T14:10:18.787Z,13.72
2018-06-20T14:12:47.193Z,13.95
2018-06-20T14:15:15.607Z,15.21
2018-06-20T14:17:43.908Z,12.85
2018-06-20T14:20:17.504Z,13.97
2018-06-20T14:22:45.861Z,13.07
2018-06-20T14:25:14.163Z,12.14
2018-06-20T14:27:42.528Z,12.50
2018-06-20T14:30:10.925Z,12.18
2018-06-20T14:32:44.595Z,12.19
2018-06-20T14:35:18.407Z,12.48
2018-06-20T14:37:52.214Z,11.86
2018-06-20T14:40:25.802Z,10.98
2018-06-20T14:42:59.425Z,10.41
2018-06-20T14:45:33.028Z,10.18
2018-06-20T14:48:01.488Z,10.15
2018-06-20T14:50:29.952Z,10.73
2018-06-20T14:52:58.376Z,9.86
2018-06-20T14:55:26.884Z,10.11
2018-06-20T14:57:55.363Z,10.42
2018-06-20T15:00:23.860Z,9.74
2018-06-20T15:03:53.720Z,9.47
2018-06-20T15:06:22.043Z,11.01
2018-06-20T15:08:50.619Z,9.64
2018-06-20T15:11:19.179Z,10.38
2018-06-20T15:13:47.533Z,9.58
2018-06-20T15:16:21.247Z,9.77
2018-06-20T15:18:49.828Z,10.70
2018-06-20T15:21:19.033Z,10.91
2018-06-20T15:23:47.452Z,10.23
2018-06-20T15:26:21.162Z,9.51
2018-06-20T15:28:54.657Z,8.40
2018-06-20T15:31:29.285Z,8.56
2018-06-20T15:34:03.239Z,9.86
2018-06-20T15:36:37.208Z,11.35
2018-06-20T15:39:07.699Z,10.69
2018-06-20T15:41:36.069Z,9.63
2018-06-20T15:44:05.081Z,9.34
2018-06-20T15:46:33.597Z,7.77
2018-06-20T15:49:01.947Z,8.47
2018-06-20T15:51:30.397Z,8.93
2018-06-20T15:53:58.788Z,9.20
2018-06-20T15:56:27.520Z,10.63
2018-06-20T15:58:56.037Z,10.01
2018-06-20T16:01:24.424Z,9.74
2018-06-20T16:03:52.768Z,10.47
2018-06-20T16:06:21.233Z,9.43
2018-06-20T16:08:55.031Z,9.77
2018-06-20T16:11:23.389Z,10.06
2018-06-20T16:13:51.872Z,10.20
2018-06-20T16:16:20.394Z,10.54
2018-06-20T16:18:54.069Z,10.21
2018-06-20T16:21:27.797Z,10.43
2018-06-20T16:24:01.554Z,9.42
2018-06-20T16:26:35.322Z,9.63
2018-06-20T16:29:09.052Z,11.85
2018-06-20T16:31:37.477Z,10.78
2018-06-20T16:34:05.841Z,11.98
2018-06-20T16:36:34.311Z,11.17
2018-06-20T16:39:02.682Z,10.50
2018-06-20T16:41:31.030Z,10.37
2018-06-20T16:43:59.296Z,9.77
2018-06-20T16:46:27.658Z,9.93
2018-06-20T16:48:56.124Z,9.01
2018-06-20T16:51:24.439Z,8.32
2018-06-20T16:53:52.817Z,8.07
2018-06-20T16:56:21.221Z,7.49
2018-06-20T16:58:49.796Z,8.73
2018-06-20T17:01:23.253Z,7.74
2018-06-20T17:03:51.706Z,9.99
2018-06-20T17:06:20.148Z,9.19
2018-06-20T17:08:48.750Z,9.47
2018-06-20T17:11:17.160Z,9.82
2018-06-20T17:13:50.933Z,9.64
2018-06-20T17:16:24.698Z,9.41
2018-06-20T17:18:58.516Z,9.32
2018-06-20T17:22:30.062Z,11.00
2018-06-20T17:25:03.729Z,10.75
2018-06-20T17:27:32.317Z,10.04
2018-06-20T17:30:00.928Z,10.00
2018-06-20T17:32:29.394Z,9.94
2018-06-20T17:34:57.998Z,10.05
2018-06-20T17:37:26.546Z,9.55
2018-06-20T17:39:55.470Z,11.28
2018-06-20T17:42:24.008Z,11.21
2018-06-20T17:44:52.509Z,11.18
2018-06-20T17:47:20.857Z,12.04
2018-06-20T17:49:49.485Z,12.54
2018-06-20T17:52:18.012Z,13.90
2018-06-20T17:54:46.665Z,13.21
2018-06-20T17:57:15.073Z,12.85
2018-06-20T17:59:43.429Z,14.14
2018-06-20T18:02:11.870Z,14.97
2018-06-20T18:04:45.509Z,14.89
2018-06-20T18:07:19.319Z,15.68
2018-06-20T18:09:53.106Z,20.36
2018-06-20T18:12:26.831Z,24.86
2018-06-20T18:15:00.549Z,27.68
2018-06-20T18:17:29.011Z,30.60
2018-06-20T18:19:57.505Z,34.48
2018-06-20T18:22:25.789Z,34.18
2018-06-20T18:24:54.247Z,35.19
2018-06-20T18:27:22.513Z,36.18
2018-06-20T18:29:50.887Z,37.23
2018-06-20T18:32:19.188Z,38.35
2018-06-20T18:34:48.195Z,39.81
2018-06-20T18:37:16.553Z,40.35
2018-06-20T18:39:50.280Z,42.36
2018-06-20T18:42:18.654Z,43.02
2018-06-20T18:44:47.028Z,43.75
2018-06-20T18:47:20.845Z,44.29
2018-06-20T18:49:49.299Z,44.45
2018-06-20T18:52:18.116Z,45.31
2018-06-20T18:54:46.670Z,45.94
2018-06-20T18:57:21.458Z,46.98
2018-06-20T18:59:55.236Z,48.07
2018-06-20T19:02:29.524Z,48.26
2018-06-20T19:05:03.345Z,48.76
2018-06-20T19:07:37.206Z,49.35
2018-06-20T19:10:05.709Z,49.69
2018-06-20T19:12:34.167Z,48.35
2018-06-20T19:15:02.663Z,51.32
2018-06-20T19:17:31.417Z,50.33
2018-06-20T19:20:00.673Z,50.66
2018-06-20T19:22:29.000Z,52.18
2018-06-20T19:24:57.356Z,52.61
2018-06-20T19:27:25.735Z,52.25
2018-06-20T19:29:55.034Z,54.31
2018-06-20T19:32:23.550Z,55.44
2018-06-20T19:34:51.859Z,54.54
2018-06-20T19:37:20.195Z,55.16
2018-06-20T19:39:52.562Z,56.21
2018-06-20T19:42:22.866Z,59.41
2018-06-20T19:44:51.374Z,60.55
2018-06-20T19:47:19.709Z,59.27
2018-06-20T19:49:48.094Z,60.37
2018-06-20T19:52:16.414Z,60.60
2018-06-20T19:54:44.836Z,60.55
2018-06-20T19:57:13.327Z,62.17
2018-06-20T19:59:41.789Z,62.26
2018-06-20T20:02:10.602Z,61.65
2018-06-20T20:04:38.917Z,62.90
2018-06-20T20:07:07.315Z,62.97
2018-06-20T20:09:36.038Z,65.50
2018-06-20T20:12:04.532Z,64.76
2018-06-20T20:14:33.123Z,64.72
2018-06-20T20:17:01.580Z,65.47
2018-06-20T20:19:30.117Z,65.75
2018-06-20T20:21:58.436Z,65.68
2018-06-20T20:24:27.289Z,67.91
2018-06-20T20:26:55.678Z,64.25
2018-06-20T20:29:24.112Z,67.28
2018-06-20T20:31:52.420Z,67.43
2018-06-20T20:34:20.882Z,65.52
2018-06-20T20:36:49.254Z,65.87
2018-06-20T20:39:17.992Z,67.25
2018-06-20T20:41:46.672Z,67.32
2018-06-20T20:44:15.057Z,67.64
2018-06-20T20:46:43.405Z,69.89
2018-06-20T20:49:11.828Z,69.15
2018-06-20T20:51:40.583Z,66.98
2018-06-20T20:54:09.041Z,68.28
2018-06-20T20:56:37.665Z,69.05
2018-06-20T20:59:06.077Z,69.11
2018-06-20T21:01:34.692Z,71.86
2018-06-20T21:04:02.977Z,70.53
2018-06-20T21:06:31.364Z,67.30
2018-06-20T21:08:59.968Z,68.88
2018-06-20T21:11:32.500Z,66.66
2018-06-20T21:14:01.776Z,67.30
2018-06-20T21:16:30.324Z,67.37
2018-06-20T21:18:59.180Z,68.96
2018-06-20T21:21:27.941Z,69.07
2018-06-20T21:23:56.311Z,70.99
2018-06-20T21:26:24.701Z,71.31
2018-06-20T21:28:53.058Z,69.46
2018-06-20T21:31:21.715Z,71.47
2018-06-20T21:33:50.061Z,73.30
2018-06-20T21:36:21.629Z,74.22
2018-06-20T21:38:51.303Z,75.94
2018-06-20T21:41:20.978Z,78.75
2018-06-20T21:43:49.471Z,80.93
2018-06-20T21:46:17.807Z,81.78
2018-06-20T21:48:46.793Z,83.42
2018-06-20T21:51:17.527Z,84.29
2018-06-20T21:53:47.375Z,86.85
2018-06-20T21:56:15.849Z,87.14
2018-06-20T21:58:44.314Z,87.43
2018-06-20T22:01:16.739Z,88.00
2018-06-20T22:03:45.249Z,88.56
2018-06-20T22:06:13.585Z,88.06
2018-06-20T22:08:42.062Z,88.97
2018-06-20T22:11:10.373Z,89.09
2018-06-20T22:13:38.862Z,89.59
2018-06-20T22:16:07.382Z,90.65
2018-06-20T22:18:35.737Z,92.30
2018-06-20T22:21:04.104Z,91.90
2018-06-20T22:23:32.574Z,91.66
2018-06-20T22:26:00.957Z,91.46
2018-06-20T22:28:29.270Z,91.10
2018-06-20T22:30:57.567Z,92.91
2018-06-20T22:33:26.515Z,92.64
2018-06-20T22:35:54.938Z,92.68
2018-06-20T22:38:23.334Z,92.26
2018-06-20T22:40:51.922Z,92.94
2018-06-20T22:43:20.320Z,93.18
2018-06-20T22:45:49.325Z,92.29
2018-06-20T22:48:17.793Z,92.85
2018-06-20T22:50:46.231Z,93.13
2018-06-20T22:53:14.654Z,93.13
2018-06-20T22:55:43.340Z,94.33
2018-06-20T22:58:11.832Z,94.26
2018-06-20T23:00:40.316Z,92.48
2018-06-20T23:03:08.732Z,92.36
2018-06-20T23:05:37.108Z,91.96
2018-06-20T23:14:06.778Z,92.47
2018-06-20T23:16:35.236Z,92.28
2018-06-20T23:19:03.962Z,92.54
2018-06-20T23:21:32.351Z,92.31
2018-06-20T23:24:00.980Z,93.16
2018-06-20T23:26:29.494Z,92.55
2018-06-20T23:28:58.487Z,93.66
2018-06-20T23:31:26.914Z,93.91
2018-06-20T23:33:55.411Z,94.83
2018-06-20T23:36:24.219Z,93.96
2018-06-20T23:38:52.669Z,95.00
2018-06-20T23:41:21.071Z,95.84
2018-06-20T23:43:49.425Z,95.32
2018-06-20T23:46:17.986Z,96.23
2018-06-20T23:48:46.467Z,96.31
2018-06-20T23:51:15.050Z,97.20
2018-06-20T23:53:43.444Z,97.99
2018-06-20T23:56:11.855Z,99.33
2018-06-20T23:58:40.364Z,99.56
